KROW/ROW METAR and TAF weather

Enter ICAO airport designator
Station Type Date Time Source
KROW METAR 2018/12/13 06:03 UTC NOAA

KROW 130603Z AUTO 32022G30KT 10SM FEW050 SCT090 SCT120 11/02 A2973 RMK AO2 PK WND 32030/0602 WSHFT 0543 T01110022


Station Type Date Time Source
KROW Decoded METAR 2018/12/13 06:03 UTC NOAA

ROSWELL INDUSTRIAL AIR CENTR, NM, United States (KROW) 33-18N 104-32W 1112M
Dec 13, 2018 - 01:03 AM EST / 2018.12.13 0603 UTC
Wind: from the NW (320 degrees) at 25 MPH (22 KT) gusting to 35 MPH (30 KT):0
Visibility: 10 mile(s):0
Sky conditions: partly cloudy
Temperature: 52.0 F (11.1 C)
Dew Point: 36.0 F (2.2 C)
Relative Humidity: 54%
Pressure (altimeter): 29.73 in. Hg (1006 hPa)
ob: KROW 130603Z AUTO 32022G30KT 10SM FEW050 SCT090 SCT120 11/02 A2973 RMK AO2 PK WND 32030/0602 WSHFT 0543 T01110022
cycle: 6

Station Type Date Time Source
KROW TAF 2018/12/13 06:33 UTC NOAA

TAF KROW 130529Z 1306/1406 26012G18KT P6SM SCT090
FM130800 32028G38KT P6SM VCSH BKN070
FM131000 35032G44KT P6SM VCSH BKN040
TEMPO 1312/1316 5SM -SN OVC030
FM131600 35025G35KT P6SM BKN090
FM131900 35020G30KT P6SM SKC
FM140000 33011KT P6SM SKC


Example: see airport list